Time;durP1;ratioP1;P1;durP2;ratioP2;P2;SDS_P1;SDS_P2;PMS_P1;PMS_P2;Temp;Humidity;BMP_temperature;BMP_pressure;BME280_temperature;BME280_humidity;BME280_pressure;Samples;Min_cycle;Max_cycle;Signal;HPM_P1;HPM_P2
2022/04/27 00:00:33;;;;;;;7.65;3.38;;;11.30;55.90;;;;;;5040786;28;20064;-63
2022/04/27 00:03:00;;;;;;;7.90;3.58;;;11.20;55.90;;;;;;5035705;28;20048;-62
2022/04/27 00:05:27;;;;;;;8.57;3.78;;;11.20;56.10;;;;;;5039289;28;20028;-63
2022/04/27 00:07:52;;;;;;;7.55;3.15;;;11.20;56.70;;;;;;5041650;28;20527;-63
2022/04/27 00:10:21;;;;;;;8.35;3.80;;;11.20;56.20;;;;;;5046163;28;20116;-63
2022/04/27 00:12:47;;;;;;;9.27;3.90;;;11.10;56.80;;;;;;5051924;28;20029;-63
2022/04/27 00:15:14;;;;;;;8.45;4.03;;;11.10;56.30;;;;;;5053918;28;20039;-63
2022/04/27 00:17:40;;;;;;;11.80;3.72;;;11.10;56.50;;;;;;5037782;28;20029;-63
2022/04/27 00:20:07;;;;;;;8.00;3.72;;;11.00;56.50;;;;;;5049885;28;20033;-63
2022/04/27 00:22:34;;;;;;;6.95;3.28;;;11.00;56.60;;;;;;5035271;28;20362;-63
2022/04/27 00:25:03;;;;;;;8.43;3.75;;;11.00;56.70;;;;;;5039516;28;20037;-63
2022/04/27 00:27:30;;;;;;;8.90;4.10;;;11.00;56.80;;;;;;5041483;28;20058;-63
2022/04/27 00:29:57;;;;;;;8.45;3.97;;;10.90;56.90;;;;;;5046187;28;20361;-63
2022/04/27 00:32:22;;;;;;;9.02;3.33;;;10.90;57.00;;;;;;5034122;28;21973;-63
2022/04/27 00:34:48;;;;;;;8.07;3.35;;;10.90;57.00;;;;;;5048734;28;20076;-63
2022/04/27 00:37:14;;;;;;;7.80;2.90;;;10.90;57.10;;;;;;5050980;28;20025;-62
2022/04/27 00:39:39;;;;;;;9.45;3.78;;;10.80;57.10;;;;;;5043874;28;20029;-63
2022/04/27 00:42:14;;;;;;;8.27;3.75;;;10.80;57.10;;;;;;5041204;28;20108;-63
2022/04/27 00:44:43;;;;;;;12.25;3.95;;;10.80;57.10;;;;;;5054932;28;20065;-63
2022/04/27 00:47:14;;;;;;;7.93;3.55;;;10.80;57.20;;;;;;5053412;28;20082;-63
2022/04/27 00:49:43;;;;;;;9.32;3.70;;;10.80;57.30;;;;;;5045012;28;20029;-62
2022/04/27 00:52:13;;;;;;;8.68;3.47;;;10.70;57.40;;;;;;5034811;28;20029;-63
2022/04/27 00:54:43;;;;;;;8.10;3.42;;;10.70;57.50;;;;;;5035106;28;20420;-63
2022/04/27 00:57:09;;;;;;;7.32;3.30;;;10.70;57.60;;;;;;5050166;28;20033;-63
2022/04/27 00:59:36;;;;;;;10.63;4.10;;;10.70;57.60;;;;;;5033855;28;20345;-62
2022/04/27 01:02:04;;;;;;;9.95;4.00;;;10.60;57.70;;;;;;5034706;28;20021;-62
2022/04/27 01:04:31;;;;;;;8.20;3.33;;;10.60;57.80;;;;;;5035070;28;20037;-63
2022/04/27 01:06:58;;;;;;;7.47;3.58;;;10.60;57.80;;;;;;5034768;28;20029;-62
2022/04/27 01:09:25;;;;;;;9.75;3.92;;;10.60;57.90;;;;;;5040216;28;20079;-63
2022/04/27 01:11:51;;;;;;;9.07;4.40;;;10.60;58.00;;;;;;5043739;28;20136;-63
2022/04/27 01:14:17;;;;;;;7.57;3.75;;;10.60;58.00;;;;;;5051025;28;20299;-63
2022/04/27 01:16:49;;;;;;;8.57;3.70;;;10.60;58.10;;;;;;5042036;28;20017;-62
2022/04/27 01:19:16;;;;;;;;;;;10.60;58.20;;;;;;5034616;28;20017;-63
2022/04/27 01:21:42;;;;;;;7.35;3.50;;;10.50;58.10;;;;;;5039117;28;19932;-62
2022/04/27 01:24:09;;;;;;;7.88;3.95;;;10.50;58.20;;;;;;5034535;28;20450;-62
2022/04/27 01:26:37;;;;;;;8.98;3.80;;;10.50;58.30;;;;;;5053252;28;20485;-62
2022/04/27 01:29:03;;;;;;;8.68;3.90;;;10.50;58.40;;;;;;5050784;28;20037;-63
2022/04/27 01:31:29;;;;;;;12.10;4.60;;;10.40;58.50;;;;;;5038191;28;20059;-63
2022/04/27 01:33:55;;;;;;;8.18;4.07;;;10.40;58.60;;;;;;5048573;28;20135;-63
2022/04/27 01:36:20;;;;;;;9.02;4.32;;;10.30;58.70;;;;;;5051989;28;20033;-63
2022/04/27 01:38:46;;;;;;;8.35;3.50;;;10.30;58.80;;;;;;5056183;28;20028;-63
2022/04/27 01:41:12;;;;;;;9.93;4.32;;;10.30;59.00;;;;;;5069464;28;20029;-63
2022/04/27 01:43:38;;;;;;;9.77;3.80;;;10.30;59.00;;;;;;5038433;28;20064;-63
2022/04/27 01:46:07;;;;;;;8.35;4.25;;;10.20;59.10;;;;;;5055511;28;20459;-62
2022/04/27 01:48:33;;;;;;;7.95;4.25;;;10.20;59.20;;;;;;5056542;28;20067;-63
2022/04/27 01:50:59;;;;;;;8.60;4.10;;;10.20;59.30;;;;;;5047345;28;20032;-63
2022/04/27 01:56:17;;;;;;;9.43;4.35;;;10.10;59.40;;;;;;5055774;28;20025;-65
2022/04/27 01:58:47;;;;;;;7.75;4.22;;;10.10;59.50;;;;;;5055436;28;20043;-63
2022/04/27 02:01:12;;;;;;;9.63;4.55;;;10.10;59.50;;;;;;5044139;28;20018;-62
2022/04/27 02:03:40;;;;;;;9.20;4.90;;;10.10;59.60;;;;;;5056879;28;20057;-63
2022/04/27 02:06:09;;;;;;;9.68;4.15;;;10.00;59.70;;;;;;5055492;28;20036;-63
2022/04/27 02:08:35;;;;;;;9.60;4.03;;;10.00;59.70;;;;;;5037698;28;20029;-62
2022/04/27 02:11:01;;;;;;;9.80;4.30;;;10.00;59.80;;;;;;5053242;28;20025;-63
2022/04/27 02:13:27;;;;;;;11.52;4.70;;;10.00;59.90;;;;;;5040428;28;20022;-63
2022/04/27 02:15:55;;;;;;;7.97;4.10;;;10.00;60.10;;;;;;5036883;28;20044;-62
2022/04/27 02:18:37;;;;;;;10.02;4.43;;;9.90;60.10;;;;;;5038409;28;20033;-63
2022/04/27 02:21:05;;;;;;;10.35;5.22;;;9.90;60.20;;;;;;5044193;28;20040;-62
2022/04/27 02:23:30;;;;;;;10.73;4.80;;;9.90;60.30;;;;;;5038945;28;20372;-63
2022/04/27 02:26:00;;;;;;;8.57;4.43;;;9.90;60.30;;;;;;5036609;28;20079;-62
2022/04/27 02:28:26;;;;;;;8.80;4.47;;;9.90;60.40;;;;;;5036788;28;20056;-63
2022/04/27 02:30:51;;;;;;;8.85;4.22;;;9.80;60.40;;;;;;5020430;28;20091;-63
2022/04/27 02:33:17;;;;;;;9.60;4.43;;;9.80;60.50;;;;;;5036494;28;20462;-63
2022/04/27 02:35:43;;;;;;;8.88;4.60;;;9.80;60.50;;;;;;5037344;28;20097;-62
2022/04/27 02:38:09;;;;;;;9.95;4.60;;;9.70;61.30;;;;;;5036414;28;20075;-63
2022/04/27 02:40:35;;;;;;;8.80;4.82;;;9.70;60.70;;;;;;5043525;28;20043;-62
2022/04/27 02:43:00;;;;;;;8.73;4.80;;;9.70;60.70;;;;;;5054984;28;20036;-63
2022/04/27 02:45:26;;;;;;;11.55;4.78;;;9.70;60.80;;;;;;5056625;28;20029;-62
2022/04/27 02:47:52;;;;;;;12.40;4.53;;;9.70;60.90;;;;;;5053444;28;20052;-62
2022/04/27 02:53:01;;;;;;;8.35;4.53;;;9.60;61.00;;;;;;5046247;28;20041;-62
2022/04/27 02:55:33;;;;;;;8.95;4.38;;;9.60;61.10;;;;;;5042120;28;20175;-62
2022/04/27 02:57:58;;;;;;;9.73;4.45;;;9.60;61.20;;;;;;5053592;28;20112;-62
2022/04/27 03:00:25;;;;;;;7.82;4.40;;;9.60;61.30;;;;;;5046842;28;20044;-62
2022/04/27 03:02:52;;;;;;;8.63;4.35;;;9.50;61.30;;;;;;5039286;28;20036;-62
2022/04/27 03:05:20;;;;;;;9.13;4.25;;;9.50;61.40;;;;;;5035952;28;20056;-62
2022/04/27 03:07:46;;;;;;;9.45;4.55;;;9.50;61.60;;;;;;5027603;28;20474;-62
2022/04/27 03:10:12;;;;;;;8.75;4.63;;;9.50;61.60;;;;;;5046498;28;20040;-62
2022/04/27 03:12:38;;;;;;;10.32;4.72;;;9.50;61.60;;;;;;5039702;28;20025;-62
2022/04/27 03:15:06;;;;;;;7.65;4.32;;;9.50;61.60;;;;;;5049166;28;20087;-63
2022/04/27 03:17:33;;;;;;;10.00;4.38;;;9.50;61.70;;;;;;5042105;28;20025;-63
2022/04/27 03:19:59;;;;;;;8.77;4.53;;;9.50;61.80;;;;;;5053443;28;20059;-62
2022/04/27 03:22:26;;;;;;;9.05;4.65;;;9.50;61.90;;;;;;5053728;28;20024;-62
2022/04/27 03:24:51;;;;;;;10.18;4.90;;;9.50;62.00;;;;;;5056458;28;20036;-62
2022/04/27 03:27:21;;;;;;;11.35;5.10;;;9.50;62.00;;;;;;5053041;28;20026;-63
2022/04/27 03:29:48;;;;;;;10.60;6.45;;;9.50;62.10;;;;;;5035777;28;20032;-63
2022/04/27 03:32:14;;;;;;;11.48;6.50;;;9.50;62.20;;;;;;5044630;28;20032;-63
2022/04/27 03:34:44;;;;;;;14.60;6.70;;;9.40;62.10;;;;;;5052149;28;20028;-62
2022/04/27 03:37:11;;;;;;;11.45;6.40;;;9.40;62.20;;;;;;5054820;28;20073;-63
2022/04/27 03:39:37;;;;;;;10.48;6.00;;;9.40;62.30;;;;;;5049152;28;20428;-63
2022/04/27 03:42:03;;;;;;;14.73;6.35;;;9.40;62.40;;;;;;5050057;28;20029;-62
2022/04/27 03:44:30;;;;;;;11.85;5.88;;;9.30;62.50;;;;;;5037593;28;20029;-62
2022/04/27 03:46:56;;;;;;;12.20;5.90;;;9.30;62.50;;;;;;5054245;28;20040;-62
2022/04/27 03:49:22;;;;;;;12.07;5.78;;;9.30;62.70;;;;;;5045183;28;20111;-62
2022/04/27 03:51:47;;;;;;;10.82;5.00;;;9.20;62.70;;;;;;5054967;28;20377;-62
2022/04/27 03:54:16;;;;;;;9.20;5.75;;;9.20;62.80;;;;;;5051963;28;20025;-62
2022/04/27 03:56:42;;;;;;;14.88;5.10;;;9.20;62.90;;;;;;5054825;28;20146;-63
2022/04/27 03:59:10;;;;;;;11.05;4.65;;;9.20;62.90;;;;;;5044350;28;20095;-63
2022/04/27 04:01:35;;;;;;;9.57;5.53;;;9.20;62.90;;;;;;5035813;28;20025;-62
2022/04/27 04:04:01;;;;;;;9.68;4.95;;;9.20;63.00;;;;;;5042128;28;20087;-62
2022/04/27 04:06:27;;;;;;;8.85;4.75;;;9.20;63.10;;;;;;5054479;28;20462;-62
2022/04/27 04:08:52;;;;;;;9.00;5.10;;;9.10;63.10;;;;;;5045961;28;20048;-62
2022/04/27 04:11:19;;;;;;;11.35;6.43;;;9.10;63.20;;;;;;5035575;28;20461;-62
2022/04/27 04:14:12;;;;;;;10.27;4.90;;;9.10;63.20;;;;;;5048999;28;20033;-63
2022/04/27 04:16:46;;;;;;;9.48;5.47;;;9.00;63.20;;;;;;5054563;28;20033;-62
2022/04/27 04:19:18;;;;;;;9.27;5.35;;;9.00;63.30;;;;;;5042762;28;20022;-62
2022/04/27 04:22:04;;;;;;;10.63;5.30;;;9.00;63.30;;;;;;5054352;28;20032;-62
2022/04/27 04:30:16;;;;;;;8.77;5.30;;;8.90;63.60;;;;;;5050838;28;20399;-62
2022/04/27 04:32:45;;;;;;;9.57;5.22;;;8.90;63.70;;;;;;5023147;28;20496;-62
2022/04/27 04:35:24;;;;;;;9.75;5.13;;;8.90;63.70;;;;;;5047040;28;20033;-62
2022/04/27 04:37:50;;;;;;;10.68;5.57;;;8.90;63.80;;;;;;5035357;28;20048;-63
2022/04/27 04:40:16;;;;;;;9.75;5.63;;;8.90;63.90;;;;;;5044536;28;20020;-62
2022/04/27 04:42:42;;;;;;;10.48;5.55;;;8.90;63.90;;;;;;5039468;28;20043;-62
2022/04/27 04:45:08;;;;;;;9.93;5.72;;;8.90;64.70;;;;;;5035355;28;20025;-63
2022/04/27 04:47:56;;;;;;;13.10;5.95;;;8.90;64.00;;;;;;5034348;28;20036;-63
2022/04/27 04:50:42;;;;;;;10.10;5.32;;;8.90;64.10;;;;;;5038654;28;20025;-62
2022/04/27 04:53:20;;;;;;;9.48;5.40;;;8.90;64.10;;;;;;5033015;28;20052;-62
2022/04/27 04:56:12;;;;;;;11.73;5.40;;;8.90;64.10;;;;;;5041756;28;20041;-62
2022/04/27 04:58:56;;;;;;;11.45;5.43;;;8.90;64.10;;;;;;5042071;28;20338;-62
2022/04/27 05:01:40;;;;;;;11.05;5.50;;;9.00;64.20;;;;;;5044811;28;20043;-62
2022/04/27 05:04:22;;;;;;;10.50;5.35;;;9.00;64.30;;;;;;5053160;28;20469;-62
2022/04/27 05:06:57;;;;;;;9.57;5.00;;;9.00;64.30;;;;;;5048884;28;20044;-63
2022/04/27 05:09:52;;;;;;;11.02;5.68;;;9.00;64.40;;;;;;5072567;28;20368;-63
2022/04/27 05:12:40;;;;;;;8.10;4.82;;;9.00;64.40;;;;;;4993897;28;21448;-63
2022/04/27 05:15:19;;;;;;;9.20;4.65;;;9.10;64.50;;;;;;5003576;28;20048;-63
2022/04/27 05:17:56;;;;;;;12.05;5.20;;;9.10;64.40;;;;;;4991634;28;20041;-63
2022/04/27 05:20:33;;;;;;;10.88;5.40;;;9.10;64.40;;;;;;4990358;28;20089;-63
2022/04/27 05:22:59;;;;;;;13.15;5.20;;;9.20;64.50;;;;;;4992348;28;20046;-63
2022/04/27 05:25:33;;;;;;;9.48;4.80;;;9.20;64.50;;;;;;4998228;28;20042;-63
2022/04/27 05:28:09;;;;;;;9.60;5.35;;;9.30;64.50;;;;;;4993448;28;20038;-62
2022/04/27 05:34:02;;;;;;;10.18;5.13;;;9.70;63.80;;;;;;4993867;28;20140;-62
2022/04/27 05:36:38;;;;;;;9.45;5.05;;;9.90;63.40;;;;;;5003154;28;20042;-63
2022/04/27 05:39:20;;;;;;;9.30;5.35;;;10.20;63.00;;;;;;4977407;28;20073;-64
2022/04/27 05:42:02;;;;;;;10.85;4.78;;;10.60;62.40;;;;;;4992371;28;20026;-63
2022/04/27 05:44:58;;;;;;;9.10;4.57;;;11.30;60.90;;;;;;4992633;28;20336;-63
2022/04/27 05:48:03;;;;;;;8.27;4.53;;;11.70;59.80;;;;;;4992936;28;20043;-63
2022/04/27 05:50:40;;;;;;;8.73;4.90;;;12.30;59.20;;;;;;5043609;28;20044;-63
2022/04/27 05:53:12;;;;;;;10.95;4.70;;;13.30;57.70;;;;;;5022218;28;20095;-64
2022/04/27 05:56:08;;;;;;;11.85;4.40;;;14.40;55.80;;;;;;5092770;28;20094;-64
2022/04/27 05:58:52;;;;;;;9.95;4.45;;;15.40;53.80;;;;;;5076810;28;20048;-63
2022/04/27 06:01:39;;;;;;;7.65;4.10;;;16.20;52.20;;;;;;5075398;28;20043;-63
2022/04/27 06:04:08;;;;;;;10.90;4.57;;;16.80;51.00;;;;;;5076974;28;20025;-63
2022/04/27 06:06:40;;;;;;;10.85;4.70;;;17.00;50.30;;;;;;5113932;28;20031;-64
2022/04/27 06:09:08;;;;;;;9.70;4.75;;;16.80;50.30;;;;;;5077167;28;20488;-64
2022/04/27 06:11:49;;;;;;;8.97;3.73;;;16.40;50.90;;;;;;5092750;28;20020;-64
2022/04/27 06:14:35;;;;;;;8.63;4.35;;;15.90;51.60;;;;;;5090173;28;20346;-64
2022/04/27 06:17:02;;;;;;;9.70;4.68;;;15.60;52.10;;;;;;5078216;28;20406;-64
2022/04/27 06:19:27;;;;;;;8.38;4.20;;;15.30;52.50;;;;;;5055527;28;20038;-64
2022/04/27 06:21:54;;;;;;;9.88;4.55;;;15.00;52.70;;;;;;5064286;28;20027;-64
2022/04/27 06:24:21;;;;;;;11.63;4.93;;;14.90;52.80;;;;;;5076890;28;20123;-64
2022/04/27 06:26:51;;;;;;;9.00;5.15;;;14.80;52.80;;;;;;5079651;28;20051;-65
2022/04/27 06:29:16;;;;;;;8.07;4.30;;;14.70;52.70;;;;;;5080066;28;20032;-63
2022/04/27 06:31:46;;;;;;;8.80;4.28;;;14.70;52.60;;;;;;5068416;28;20056;-64
2022/04/27 06:34:12;;;;;;;7.85;4.10;;;14.80;52.60;;;;;;5064028;28;20041;-64
2022/04/27 06:36:39;;;;;;;8.48;4.38;;;14.80;52.30;;;;;;5048316;28;20033;-65
2022/04/27 06:39:08;;;;;;;9.50;4.32;;;14.90;52.10;;;;;;5048444;28;20469;-64
2022/04/27 06:41:34;;;;;;;9.65;4.82;;;14.90;51.90;;;;;;5033783;28;20029;-65
2022/04/27 06:44:19;;;;;;;8.23;3.88;;;15.00;51.80;;;;;;5038580;28;20041;-64
2022/04/27 06:47:03;;;;;;;7.60;3.78;;;15.00;51.60;;;;;;5041043;28;20068;-64
2022/04/27 06:49:47;;;;;;;10.20;4.38;;;15.20;51.40;;;;;;5047250;28;20060;-68
2022/04/27 06:52:31;;;;;;;8.38;3.78;;;15.30;51.10;;;;;;5044576;28;20028;-65
2022/04/27 06:55:16;;;;;;;9.05;4.40;;;15.40;50.80;;;;;;5033896;28;20427;-64
2022/04/27 06:58:11;;;;;;;11.32;4.85;;;15.40;50.70;;;;;;5039784;28;20041;-65
2022/04/27 07:00:37;;;;;;;9.68;4.78;;;15.60;50.60;;;;;;5032927;28;20036;-64
2022/04/27 07:03:08;;;;;;;10.88;5.20;;;15.70;50.40;;;;;;5038368;28;20437;-66
2022/04/27 07:05:33;;;;;;;10.40;4.75;;;15.80;50.40;;;;;;5042997;28;20036;-66
2022/04/27 07:07:59;;;;;;;7.30;4.57;;;15.90;50.20;;;;;;5031953;28;20025;-64
2022/04/27 07:10:25;;;;;;;9.70;4.70;;;16.00;50.00;;;;;;5044308;28;20445;-64
2022/04/27 07:12:50;;;;;;;8.98;5.32;;;16.10;49.90;;;;;;5048491;28;20112;-64
2022/04/27 07:15:16;;;;;;;11.90;5.20;;;16.20;49.80;;;;;;5045358;28;20039;-64
2022/04/27 07:17:42;;;;;;;12.07;5.38;;;16.20;49.50;;;;;;5047577;28;20108;-64
2022/04/27 07:20:08;;;;;;;10.00;4.55;;;16.30;49.30;;;;;;5044687;28;20021;-64
2022/04/27 07:22:34;;;;;;;11.32;5.63;;;16.40;49.10;;;;;;5049549;28;20040;-64
2022/04/27 07:25:00;;;;;;;8.95;4.68;;;16.50;48.90;;;;;;5054833;28;20071;-63
2022/04/27 07:27:27;;;;;;;9.10;5.50;;;16.50;48.90;;;;;;5055489;28;20052;-63
2022/04/27 07:29:53;;;;;;;9.57;4.72;;;16.60;48.60;;;;;;5055639;28;20059;-63
2022/04/27 07:32:18;;;;;;;9.25;4.88;;;16.70;48.20;;;;;;5053909;28;20033;-63
2022/04/27 07:34:44;;;;;;;10.30;5.03;;;16.80;48.00;;;;;;5055926;28;20037;-63
2022/04/27 07:37:10;;;;;;;9.18;4.85;;;16.90;47.80;;;;;;5055727;28;20021;-62
2022/04/27 07:39:35;;;;;;;10.15;4.50;;;17.10;47.60;;;;;;5054085;28;20124;-62
2022/04/27 07:42:01;;;;;;;10.00;4.70;;;17.10;47.30;;;;;;5052276;28;20464;-63
2022/04/27 07:44:27;;;;;;;9.40;4.25;;;17.20;47.20;;;;;;5054029;28;20446;-62
2022/04/27 07:46:53;;;;;;;8.18;4.15;;;17.40;46.90;;;;;;5055939;28;20361;-62
2022/04/27 07:49:19;;;;;;;9.80;4.32;;;17.50;46.60;;;;;;5055939;28;20116;-63
2022/04/27 07:51:48;;;;;;;7.20;3.30;;;17.60;46.40;;;;;;5055295;28;20025;-62
2022/04/27 07:54:14;;;;;;;7.45;3.17;;;17.80;45.90;;;;;;5055022;28;20512;-63
2022/04/27 07:56:40;;;;;;;8.07;3.25;;;17.90;45.30;;;;;;5055930;28;20024;-62
2022/04/27 07:59:06;;;;;;;6.63;3.50;;;18.00;44.90;;;;;;5059118;28;20033;-62
2022/04/27 08:01:31;;;;;;;7.47;3.63;;;18.10;44.50;;;;;;5055701;28;20033;-64
2022/04/27 08:03:57;;;;;;;7.38;2.88;;;18.20;44.20;;;;;;5054640;28;20033;-62
2022/04/27 08:06:23;;;;;;;7.97;3.55;;;18.20;44.00;;;;;;5055705;28;20060;-63
2022/04/27 08:08:48;;;;;;;7.47;3.45;;;18.30;43.90;;;;;;5054491;28;20103;-63
2022/04/27 08:11:15;;;;;;;7.80;2.95;;;18.40;43.50;;;;;;5053953;28;20028;-63
2022/04/27 08:13:42;;;;;;;8.85;3.30;;;18.50;43.10;;;;;;5054489;28;20064;-63
2022/04/27 08:16:09;;;;;;;14.10;3.33;;;18.50;42.90;;;;;;5055364;28;20094;-63
2022/04/27 08:18:35;;;;;;;5.78;2.45;;;18.50;42.80;;;;;;5056122;28;20060;-63
2022/04/27 08:21:16;;;;;;;9.15;2.78;;;18.50;42.40;;;;;;5054921;28;20437;-63
2022/04/27 08:23:47;;;;;;;6.20;2.47;;;18.60;42.20;;;;;;5056097;28;20434;-63
2022/04/27 08:26:14;;;;;;;7.43;2.20;;;18.60;42.00;;;;;;5054369;28;21637;-63
2022/04/27 08:28:40;;;;;;;4.97;1.95;;;18.80;41.80;;;;;;5055320;28;20032;-63
2022/04/27 08:31:07;;;;;;;6.22;2.42;;;18.90;41.40;;;;;;5055335;28;20052;-63
2022/04/27 08:33:33;;;;;;;7.10;2.38;;;19.00;41.20;;;;;;5055381;28;20063;-63
2022/04/27 08:35:59;;;;;;;5.32;2.13;;;19.10;41.00;;;;;;5054846;28;20040;-62
2022/04/27 08:38:26;;;;;;;6.80;2.50;;;19.20;40.60;;;;;;5055783;28;20024;-63
2022/04/27 08:40:52;;;;;;;6.10;2.25;;;19.30;40.40;;;;;;5055521;28;20059;-63
2022/04/27 08:43:18;;;;;;;5.60;1.85;;;19.30;40.20;;;;;;5053735;28;20055;-62
2022/04/27 08:45:45;;;;;;;6.68;2.70;;;19.40;40.00;;;;;;5055073;28;20084;-62
2022/04/27 08:48:13;;;;;;;4.30;1.85;;;19.50;39.90;;;;;;5055189;28;20112;-63
2022/04/27 08:50:40;;;;;;;5.43;2.03;;;19.50;39.70;;;;;;5055175;28;20373;-62
2022/04/27 08:53:07;;;;;;;6.68;2.33;;;19.60;39.70;;;;;;5055336;28;20032;-63
2022/04/27 08:55:35;;;;;;;7.53;2.60;;;19.60;39.60;;;;;;5054744;28;20492;-63
2022/04/27 08:58:08;;;;;;;8.48;2.35;;;19.60;39.50;;;;;;5055160;28;20025;-64
2022/04/27 09:00:34;;;;;;;5.18;2.20;;;19.60;39.40;;;;;;5055234;28;20020;-63
2022/04/27 09:03:25;;;;;;;6.32;2.42;;;19.60;39.40;;;;;;5054698;28;20041;-63
2022/04/27 09:05:53;;;;;;;5.72;2.33;;;19.70;39.10;;;;;;5055206;28;20366;-63
2022/04/27 09:08:19;;;;;;;4.38;2.05;;;19.70;39.20;;;;;;5054774;28;20033;-63
2022/04/27 09:10:45;;;;;;;7.30;2.72;;;19.70;39.20;;;;;;5055070;28;20420;-63
2022/04/27 09:13:10;;;;;;;5.40;2.33;;;19.70;39.20;;;;;;5054306;28;20029;-62
2022/04/27 09:15:36;;;;;;;6.63;2.53;;;19.30;39.40;;;;;;5054656;28;20043;-63
2022/04/27 09:20:59;;;;;;;4.28;1.90;;;19.30;39.40;;;;;;5055343;28;20456;-62
2022/04/27 09:23:28;;;;;;;6.10;2.33;;;19.30;39.40;;;;;;5051642;28;20025;-62
2022/04/27 09:26:13;;;;;;;6.78;2.35;;;19.20;39.40;;;;;;5038399;28;20028;-62
2022/04/27 09:28:38;;;;;;;6.35;2.42;;;19.10;39.50;;;;;;5044610;28;20381;-63
2022/04/27 09:31:04;;;;;;;5.32;2.38;;;18.80;39.70;;;;;;5041821;28;20139;-65
2022/04/27 09:33:37;;;;;;;6.47;2.60;;;18.50;40.00;;;;;;5053404;28;20410;-63
2022/04/27 09:36:23;;;;;;;5.65;1.95;;;18.30;40.10;;;;;;5043681;28;20120;-63
2022/04/27 09:38:50;;;;;;;6.28;2.53;;;18.10;40.20;;;;;;5035492;28;20038;-63
2022/04/27 09:41:36;;;;;;;6.03;2.13;;;18.00;40.60;;;;;;5058066;28;20450;-66
2022/04/27 09:44:02;;;;;;;4.68;1.90;;;17.80;40.70;;;;;;5054562;28;20033;-63
2022/04/27 09:46:27;;;;;;;5.45;1.90;;;17.80;40.80;;;;;;5042559;28;20029;-63
2022/04/27 09:49:09;;;;;;;6.28;2.28;;;17.70;40.80;;;;;;5053022;28;20106;-63
2022/04/27 09:51:36;;;;;;;6.45;2.08;;;17.70;40.80;;;;;;5051116;28;20037;-63
2022/04/27 09:54:03;;;;;;;5.18;2.13;;;17.80;40.70;;;;;;5053442;28;20030;-63
2022/04/27 09:56:39;;;;;;;6.47;2.30;;;17.70;40.70;;;;;;5052943;28;20128;-64
2022/04/27 09:59:09;;;;;;;5.05;2.00;;;17.60;40.80;;;;;;5057948;28;20319;-63
2022/04/27 10:01:36;;;;;;;5.35;2.10;;;17.50;41.10;;;;;;5053917;28;20032;-63
2022/04/27 10:04:05;;;;;;;6.60;2.42;;;17.70;41.00;;;;;;5040719;28;20442;-63
2022/04/27 10:06:32;;;;;;;5.28;2.38;;;18.10;40.50;;;;;;5056730;28;20028;-63
2022/04/27 10:08:59;;;;;;;5.10;2.20;;;18.40;40.00;;;;;;5058434;28;20387;-63
2022/04/27 10:11:27;;;;;;;6.50;2.30;;;18.70;39.40;;;;;;5054712;28;20115;-63
2022/04/27 10:13:56;;;;;;;5.75;2.25;;;19.00;39.10;;;;;;5052725;28;20017;-63
2022/04/27 10:16:25;;;;;;;5.88;2.00;;;19.20;38.70;;;;;;5045297;28;20026;-63
2022/04/27 10:18:51;;;;;;;7.65;2.10;;;19.50;38.60;;;;;;5057390;28;20138;-63
2022/04/27 10:21:57;;;;;;;4.95;1.80;;;19.70;38.20;;;;;;5045455;28;20116;-63
2022/04/27 10:24:37;;;;;;;5.75;2.17;;;19.90;38.00;;;;;;5054478;28;20065;-63
2022/04/27 10:27:15;;;;;;;6.90;2.20;;;20.00;37.70;;;;;;5039851;28;20094;-63
2022/04/27 10:29:40;;;;;;;5.88;2.10;;;20.20;37.40;;;;;;5037605;28;20034;-63
2022/04/27 10:32:06;;;;;;;5.30;2.10;;;20.50;37.30;;;;;;5052636;28;20366;-63
2022/04/27 10:34:33;;;;;;;8.60;2.22;;;20.60;37.00;;;;;;5056234;28;20097;-63
2022/04/27 10:37:01;;;;;;;4.20;2.00;;;20.70;36.90;;;;;;5054438;28;20028;-63
2022/04/27 10:39:29;;;;;;;5.30;1.98;;;20.80;36.70;;;;;;5049739;28;20056;-63
2022/04/27 10:42:05;;;;;;;4.28;1.80;;;21.00;36.60;;;;;;5053454;28;20109;-63
2022/04/27 10:44:53;;;;;;;4.35;2.00;;;21.10;36.50;;;;;;5056953;28;20029;-63
2022/04/27 10:47:20;;;;;;;5.78;2.28;;;21.00;36.30;;;;;;5042327;28;20040;-63
2022/04/27 10:49:50;;;;;;;4.70;2.20;;;20.80;36.30;;;;;;5055037;28;20051;-63
2022/04/27 10:52:16;;;;;;;4.65;2.15;;;20.60;36.30;;;;;;5054571;28;20159;-63
2022/04/27 10:54:42;;;;;;;4.55;1.90;;;20.30;36.70;;;;;;5049225;28;20029;-63
2022/04/27 10:57:28;;;;;;;5.18;2.25;;;20.00;37.00;;;;;;5049542;28;20109;-63
2022/04/27 11:00:01;;;;;;;5.68;2.05;;;19.60;37.30;;;;;;5051438;28;20029;-64
2022/04/27 11:02:37;;;;;;;7.25;2.63;;;19.30;37.80;;;;;;5043116;28;20017;-64
2022/04/27 11:05:23;;;;;;;5.53;2.17;;;19.10;38.20;;;;;;5037341;28;20067;-64
2022/04/27 11:07:59;;;;;;;6.80;2.13;;;19.00;38.40;;;;;;5045096;28;20045;-64
2022/04/27 11:10:25;;;;;;;7.45;2.30;;;18.90;38.40;;;;;;5057160;28;20056;-64
2022/04/27 11:12:53;;;;;;;6.40;2.20;;;18.90;38.40;;;;;;5057592;28;20049;-64
2022/04/27 11:15:21;;;;;;;6.32;2.15;;;18.90;38.20;;;;;;5057273;28;20033;-64
2022/04/27 11:18:02;;;;;;;7.03;2.25;;;18.90;38.10;;;;;;5056080;28;20045;-64
2022/04/27 11:20:31;;;;;;;4.95;1.83;;;19.00;37.70;;;;;;5055882;28;20028;-64
2022/04/27 11:22:59;;;;;;;4.63;2.08;;;18.90;37.90;;;;;;5055607;28;20346;-64
2022/04/27 11:25:28;;;;;;;5.82;2.15;;;19.00;38.10;;;;;;5057310;28;20044;-64
2022/04/27 11:27:55;;;;;;;4.70;2.00;;;19.10;37.80;;;;;;5055867;28;20059;-64
2022/04/27 11:30:22;;;;;;;5.43;2.08;;;19.30;37.70;;;;;;5056425;28;20036;-64
2022/04/27 11:32:49;;;;;;;5.68;2.33;;;19.40;37.60;;;;;;5056273;28;20048;-64
2022/04/27 11:35:16;;;;;;;5.63;2.20;;;19.60;37.50;;;;;;5056348;28;20044;-63
2022/04/27 11:37:41;;;;;;;7.25;2.05;;;19.70;37.40;;;;;;5056563;28;20073;-64
2022/04/27 11:40:15;;;;;;;5.22;2.10;;;19.90;37.20;;;;;;5043438;28;20060;-63
2022/04/27 11:42:46;;;;;;;4.55;1.90;;;20.00;37.10;;;;;;5056562;28;20032;-63
2022/04/27 11:45:13;;;;;;;4.57;1.80;;;20.10;37.20;;;;;;5055244;28;20629;-63
2022/04/27 11:47:39;;;;;;;5.32;2.33;;;20.20;37.20;;;;;;5055088;28;20405;-63
2022/04/27 11:50:06;;;;;;;5.53;2.20;;;20.20;37.10;;;;;;5056159;28;20342;-63
2022/04/27 11:52:36;;;;;;;5.05;2.15;;;20.30;37.00;;;;;;5054834;28;20091;-63
2022/04/27 11:55:08;;;;;;;6.32;2.70;;;20.30;36.90;;;;;;5055701;28;20025;-63
2022/04/27 11:57:34;;;;;;;6.20;2.05;;;20.30;36.90;;;;;;5056186;28;20478;-63
2022/04/27 12:00:02;;;;;;;6.43;2.35;;;20.20;36.80;;;;;;5056350;28;20025;-63
2022/04/27 12:02:40;;;;;;;4.80;2.00;;;20.20;36.80;;;;;;5056130;28;20369;-63
2022/04/27 12:05:07;;;;;;;3.65;1.90;;;20.10;36.90;;;;;;5055684;28;20107;-63
2022/04/27 12:07:35;;;;;;;6.20;1.95;;;20.10;36.70;;;;;;5055726;28;20043;-63
2022/04/27 12:10:14;;;;;;;5.28;1.85;;;20.00;36.70;;;;;;5055463;28;20058;-63
2022/04/27 12:12:40;;;;;;;5.90;2.00;;;20.00;36.70;;;;;;5055638;28;20060;-63
2022/04/27 12:15:11;;;;;;;9.27;2.00;;;19.90;36.80;;;;;;5055678;28;20037;-63
2022/04/27 12:17:58;;;;;;;5.72;1.92;;;20.00;36.70;;;;;;5055920;28;20031;-63
2022/04/27 12:20:41;;;;;;;4.68;1.90;;;20.00;36.70;;;;;;5055476;28;20029;-63
2022/04/27 12:23:14;;;;;;;4.82;2.08;;;20.00;36.70;;;;;;5055822;28;20037;-63
2022/04/27 12:25:44;;;;;;;4.57;1.98;;;19.90;36.60;;;;;;5055700;28;20032;-63
2022/04/27 12:28:17;;;;;;;6.18;2.15;;;19.80;36.80;;;;;;5055552;28;20029;-63
2022/04/27 12:30:44;;;;;;;4.97;2.17;;;19.80;36.70;;;;;;5055973;28;20374;-63
2022/04/27 12:33:12;;;;;;;6.40;2.10;;;19.70;36.80;;;;;;5055595;28;20056;-63
2022/04/27 12:38:25;;;;;;;6.10;1.98;;;19.70;36.80;;;;;;5055244;28;20061;-63
2022/04/27 12:40:51;;;;;;;7.53;2.58;;;19.60;37.00;;;;;;5055121;28;20060;-63
2022/04/27 12:43:17;;;;;;;4.82;1.90;;;19.60;37.20;;;;;;5055302;28;20063;-63
2022/04/27 12:46:03;;;;;;;5.57;2.10;;;19.60;37.30;;;;;;5055283;28;20025;-63
2022/04/27 12:48:30;;;;;;;7.57;2.17;;;19.60;37.10;;;;;;5047841;28;20021;-63
2022/04/27 12:50:58;;;;;;;6.35;2.20;;;19.50;37.20;;;;;;5047365;28;20116;-63
2022/04/27 12:53:24;;;;;;;4.28;1.73;;;19.50;37.30;;;;;;5043797;28;20029;-62
2022/04/27 12:56:04;;;;;;;5.65;1.75;;;19.50;37.30;;;;;;5055299;28;20025;-62
2022/04/27 12:58:30;;;;;;;5.57;2.05;;;19.50;37.20;;;;;;5051808;28;20032;-61
2022/04/27 13:00:56;;;;;;;4.90;1.80;;;19.50;37.20;;;;;;5056892;28;20110;-62
2022/04/27 13:03:23;;;;;;;4.95;2.10;;;19.50;37.40;;;;;;5052578;28;20036;-62
2022/04/27 13:05:50;;;;;;;6.53;2.55;;;19.50;37.40;;;;;;5049817;28;20332;-62
2022/04/27 13:08:16;;;;;;;5.20;2.25;;;19.50;37.50;;;;;;5034972;28;20033;-62
2022/04/27 13:13:29;;;;;;;5.95;2.10;;;19.50;37.60;;;;;;5041583;28;20029;-62
2022/04/27 13:15:55;;;;;;;5.60;2.30;;;19.40;37.50;;;;;;5034481;28;20106;-62
2022/04/27 13:18:21;;;;;;;6.03;2.33;;;19.40;37.50;;;;;;5041529;28;20021;-62
2022/04/27 13:20:50;;;;;;;4.60;2.08;;;19.30;37.50;;;;;;5035182;28;20028;-62
2022/04/27 13:23:17;;;;;;;4.38;2.10;;;19.30;37.70;;;;;;5052251;28;20025;-62
2022/04/27 13:25:43;;;;;;;5.63;2.40;;;19.20;37.70;;;;;;5034982;28;20041;-62